sensor_id;sensor_type;location;lat;lon;timestamp;pressure;altitude;pressure_sealevel;temperature;humidity
13478;BME280;12598;62.382;17.344;2023-03-21T00:00:31;100781.00;;;22.52;22.47
13478;BME280;12598;62.382;17.344;2023-03-21T00:01:34;100779.16;;;22.53;22.37
13478;BME280;12598;62.382;17.344;2023-03-21T00:02:37;100783.72;;;22.52;22.30
13478;BME280;12598;62.382;17.344;2023-03-21T00:03:39;100772.63;;;22.48;22.47
13478;BME280;12598;62.382;17.344;2023-03-21T00:04:43;100780.19;;;22.52;21.99
13478;BME280;12598;62.382;17.344;2023-03-21T00:05:54;100785.38;;;22.53;22.52
13478;BME280;12598;62.382;17.344;2023-03-21T00:06:56;100782.69;;;22.53;22.06
13478;BME280;12598;62.382;17.344;2023-03-21T00:07:58;100782.03;;;22.51;21.70
13478;BME280;12598;62.382;17.344;2023-03-21T00:09:02;100741.50;;;22.29;22.64
13478;BME280;12598;62.382;17.344;2023-03-21T00:10:05;100768.09;;;22.48;22.01
13478;BME280;12598;62.382;17.344;2023-03-21T00:11:18;100775.47;;;22.54;22.59
13478;BME280;12598;62.382;17.344;2023-03-21T00:12:20;100767.56;;;22.45;21.72
13478;BME280;12598;62.382;17.344;2023-03-21T00:13:22;100784.72;;;22.51;22.56
13478;BME280;12598;62.382;17.344;2023-03-21T00:14:24;100783.03;;;22.50;21.90
13478;BME280;12598;62.382;17.344;2023-03-21T00:15:26;100775.16;;;22.49;22.37
13478;BME280;12598;62.382;17.344;2023-03-21T00:16:45;100775.63;;;22.52;22.61
13478;BME280;12598;62.382;17.344;2023-03-21T00:17:53;100768.56;;;22.51;22.14
13478;BME280;12598;62.382;17.344;2023-03-21T00:18:58;100781.00;;;22.52;22.13
13478;BME280;12598;62.382;17.344;2023-03-21T00:20:04;100774.97;;;22.50;22.76
13478;BME280;12598;62.382;17.344;2023-03-21T00:21:09;100769.56;;;22.50;22.08
13478;BME280;12598;62.382;17.344;2023-03-21T00:22:35;100775.63;;;22.52;21.98
13478;BME280;12598;62.382;17.344;2023-03-21T00:23:37;100779.00;;;22.54;22.62
13478;BME280;12598;62.382;17.344;2023-03-21T00:24:39;100779.34;;;22.51;21.89
13478;BME280;12598;62.382;17.344;2023-03-21T00:25:41;100775.31;;;22.48;22.29
13478;BME280;12598;62.382;17.344;2023-03-21T00:26:43;100779.69;;;22.48;22.62
13478;BME280;12598;62.382;17.344;2023-03-21T00:27:45;100782.38;;;22.48;22.40
13478;BME280;12598;62.382;17.344;2023-03-21T00:29:07;100780.00;;;22.53;22.63
13478;BME280;12598;62.382;17.344;2023-03-21T00:30:09;100775.97;;;22.49;22.62
13478;BME280;12598;62.382;17.344;2023-03-21T00:31:13;100778.66;;;22.49;22.38
13478;BME280;12598;62.382;17.344;2023-03-21T00:32:16;100753.81;;;22.32;22.00
13478;BME280;12598;62.382;17.344;2023-03-21T00:33:21;100784.91;;;22.50;22.17
13478;BME280;12598;62.382;17.344;2023-03-21T00:34:26;100779.69;;;22.48;22.29
13478;BME280;12598;62.382;17.344;2023-03-21T00:35:44;100784.72;;;22.51;22.03
13478;BME280;12598;62.382;17.344;2023-03-21T00:37:08;100781.88;;;22.53;21.97
13478;BME280;12598;62.382;17.344;2023-03-21T00:38:10;100777.00;;;22.48;22.42
13478;BME280;12598;62.382;17.344;2023-03-21T00:39:13;100781.38;;;22.49;21.96
13478;BME280;12598;62.382;17.344;2023-03-21T00:40:16;100784.25;;;22.48;22.38
13478;BME280;12598;62.382;17.344;2023-03-21T00:41:29;100784.41;;;22.47;21.93
13478;BME280;12598;62.382;17.344;2023-03-21T00:42:43;100777.66;;;22.50;22.70
13478;BME280;12598;62.382;17.344;2023-03-21T00:43:45;100783.41;;;22.48;22.68
13478;BME280;12598;62.382;17.344;2023-03-21T00:44:47;100790.66;;;22.47;21.95
13478;BME280;12598;62.382;17.344;2023-03-21T00:45:50;100757.69;;;22.29;22.47
13478;BME280;12598;62.382;17.344;2023-03-21T00:46:52;100778.91;;;22.40;22.44
13478;BME280;12598;62.382;17.344;2023-03-21T00:48:08;100781.91;;;22.45;22.28
13478;BME280;12598;62.382;17.344;2023-03-21T00:49:11;100786.44;;;22.45;22.43
13478;BME280;12598;62.382;17.344;2023-03-21T00:50:14;100790.00;;;22.45;22.30
13478;BME280;12598;62.382;17.344;2023-03-21T00:51:22;100787.47;;;22.44;22.28
13478;BME280;12598;62.382;17.344;2023-03-21T00:52:27;100780.03;;;22.46;22.40
13478;BME280;12598;62.382;17.344;2023-03-21T00:53:41;100787.09;;;22.47;22.41
13478;BME280;12598;62.382;17.344;2023-03-21T00:54:43;100785.44;;;22.46;22.07
13478;BME280;12598;62.382;17.344;2023-03-21T00:55:46;100784.75;;;22.44;22.44
13478;BME280;12598;62.382;17.344;2023-03-21T00:56:48;100783.09;;;22.43;22.13
13478;BME280;12598;62.382;17.344;2023-03-21T00:57:50;100781.25;;;22.43;22.79
13478;BME280;12598;62.382;17.344;2023-03-21T00:59:02;100775.66;;;22.45;22.16
13478;BME280;12598;62.382;17.344;2023-03-21T01:00:06;100773.31;;;22.42;22.07
13478;BME280;12598;62.382;17.344;2023-03-21T01:01:11;100775.84;;;22.43;22.74
13478;BME280;12598;62.382;17.344;2023-03-21T01:02:13;100783.94;;;22.43;22.47
13478;BME280;12598;62.382;17.344;2023-03-21T01:03:16;100784.09;;;22.42;22.17
13478;BME280;12598;62.382;17.344;2023-03-21T01:04:26;100777.69;;;22.43;22.74
13478;BME280;12598;62.382;17.344;2023-03-21T01:05:29;100778.41;;;22.37;22.34
13478;BME280;12598;62.382;17.344;2023-03-21T01:06:50;100775.50;;;22.46;22.71
13478;BME280;12598;62.382;17.344;2023-03-21T01:07:51;100782.25;;;22.42;22.21
13478;BME280;12598;62.382;17.344;2023-03-21T01:08:53;100779.72;;;22.41;22.14
13478;BME280;12598;62.382;17.344;2023-03-21T01:09:56;100788.81;;;22.40;22.74
13478;BME280;12598;62.382;17.344;2023-03-21T01:11:02;100783.44;;;22.40;22.13
13478;BME280;12598;62.382;17.344;2023-03-21T01:12:05;100779.91;;;22.39;22.26
13478;BME280;12598;62.382;17.344;2023-03-21T01:13:08;100779.06;;;22.39;22.17
13478;BME280;12598;62.382;17.344;2023-03-21T01:14:12;100778.25;;;22.38;21.99
13478;BME280;12598;62.382;17.344;2023-03-21T01:15:23;100778.72;;;22.42;22.25
13478;BME280;12598;62.382;17.344;2023-03-21T01:16:26;100775.34;;;22.40;22.33
13478;BME280;12598;62.382;17.344;2023-03-21T01:17:28;100771.16;;;22.37;22.71
13478;BME280;12598;62.382;17.344;2023-03-21T01:18:30;100770.97;;;22.39;22.81
13478;BME280;12598;62.382;17.344;2023-03-21T01:19:33;100777.22;;;22.39;22.18
13478;BME280;12598;62.382;17.344;2023-03-21T01:20:52;100782.06;;;22.44;22.69
13478;BME280;12598;62.382;17.344;2023-03-21T01:21:55;100773.31;;;22.42;21.99
13478;BME280;12598;62.382;17.344;2023-03-21T01:22:58;100775.34;;;22.40;22.12
13478;BME280;12598;62.382;17.344;2023-03-21T01:24:00;100772.31;;;22.35;22.26
13478;BME280;12598;62.382;17.344;2023-03-21T01:25:02;100762.72;;;22.32;22.07
13478;BME280;12598;62.382;17.344;2023-03-21T01:26:22;100772.31;;;22.43;22.14
13478;BME280;12598;62.382;17.344;2023-03-21T01:27:24;100764.06;;;22.36;22.81
13478;BME280;12598;62.382;17.344;2023-03-21T01:28:27;100768.28;;;22.39;22.15
13478;BME280;12598;62.382;17.344;2023-03-21T01:29:29;100757.31;;;22.32;22.13
13478;BME280;12598;62.382;17.344;2023-03-21T01:30:32;100769.63;;;22.35;22.40
13478;BME280;12598;62.382;17.344;2023-03-21T01:31:42;100769.97;;;22.40;22.59
13478;BME280;12598;62.382;17.344;2023-03-21T01:32:44;100764.78;;;22.38;22.69
13478;BME280;12598;62.382;17.344;2023-03-21T01:33:46;100763.22;;;22.36;22.91
13478;BME280;12598;62.382;17.344;2023-03-21T01:34:49;100766.59;;;22.38;22.86
13478;BME280;12598;62.382;17.344;2023-03-21T01:35:55;100771.16;;;22.37;22.24
13478;BME280;12598;62.382;17.344;2023-03-21T01:37:13;100771.66;;;22.41;22.36
13478;BME280;12598;62.382;17.344;2023-03-21T01:38:21;100779.72;;;22.41;22.37
13478;BME280;12598;62.382;17.344;2023-03-21T01:39:23;100770.47;;;22.35;22.50
13478;BME280;12598;62.382;17.344;2023-03-21T01:40:25;100760.38;;;22.29;22.53
13478;BME280;12598;62.382;17.344;2023-03-21T01:41:42;100776.22;;;22.40;22.22
13478;BME280;12598;62.382;17.344;2023-03-21T01:43:00;100772.31;;;22.43;22.58
13478;BME280;12598;62.382;17.344;2023-03-21T01:44:02;100776.22;;;22.40;22.70
13478;BME280;12598;62.382;17.344;2023-03-21T01:46:51;100777.34;;;22.46;22.28
13478;BME280;12598;62.382;17.344;2023-03-21T01:48:21;100779.03;;;22.47;22.15
13478;BME280;12598;62.382;17.344;2023-03-21T01:49:34;100775.84;;;22.43;22.65
13478;BME280;12598;62.382;17.344;2023-03-21T01:50:54;100775.66;;;22.45;22.67
13478;BME280;12598;62.382;17.344;2023-03-21T01:52:10;100782.25;;;22.42;22.67
13478;BME280;12598;62.382;17.344;2023-03-21T01:53:32;100784.94;;;22.42;22.55
13478;BME280;12598;62.382;17.344;2023-03-21T01:54:38;100781.75;;;22.39;22.05
13478;BME280;12598;62.382;17.344;2023-03-21T01:55:41;100779.25;;;22.37;22.64
13478;BME280;12598;62.382;17.344;2023-03-21T01:57:07;100791.53;;;22.40;22.19
13478;BME280;12598;62.382;17.344;2023-03-21T01:58:11;100779.06;;;22.39;22.76
13478;BME280;12598;62.382;17.344;2023-03-21T01:59:27;100777.38;;;22.38;22.52
13478;BME280;12598;62.382;17.344;2023-03-21T02:00:59;100769.97;;;22.40;22.24
13478;BME280;12598;62.382;17.344;2023-03-21T02:02:16;100778.72;;;22.42;22.03
13478;BME280;12598;62.382;17.344;2023-03-21T02:03:45;100789.13;;;22.45;22.11
13478;BME280;12598;62.382;17.344;2023-03-21T02:04:58;100770.31;;;22.37;22.10
13478;BME280;12598;62.382;17.344;2023-03-21T02:06:09;100771.66;;;22.33;22.01
13478;BME280;12598;62.382;17.344;2023-03-21T02:07:18;100781.09;;;22.37;22.10
13478;BME280;12598;62.382;17.344;2023-03-21T02:08:30;100778.41;;;22.37;22.68
13478;BME280;12598;62.382;17.344;2023-03-21T02:09:46;100777.53;;;22.36;21.99
13478;BME280;12598;62.382;17.344;2023-03-21T02:10:53;100777.53;;;22.36;22.81
13478;BME280;12598;62.382;17.344;2023-03-21T02:12:07;100772.16;;;22.36;22.49
13478;BME280;12598;62.382;17.344;2023-03-21T02:13:09;100775.19;;;22.33;22.54
13478;BME280;12598;62.382;17.344;2023-03-21T02:14:16;100778.06;;;22.32;22.69
13478;BME280;12598;62.382;17.344;2023-03-21T02:28:50;100783.44;;;22.40;22.69
13478;BME280;12598;62.382;17.344;2023-03-21T02:35:52;100784.75;;;22.44;22.60
13478;BME280;12598;62.382;17.344;2023-03-21T02:40:53;100781.09;;;22.37;22.69
13478;BME280;12598;62.382;17.344;2023-03-21T02:42:07;100778.88;;;22.32;22.03
13478;BME280;12598;62.382;17.344;2023-03-21T02:44:20;100785.97;;;22.33;22.12
13478;BME280;12598;62.382;17.344;2023-03-21T02:45:17;100780.75;;;22.40;22.68
13478;BME280;12598;62.382;17.344;2023-03-21T02:46:31;100775.34;;;22.40;22.01
13478;BME280;12598;62.382;17.344;2023-03-21T02:47:50;100786.13;;;22.40;22.03
13478;BME280;12598;62.382;17.344;2023-03-21T02:49:05;100774.50;;;22.31;22.30
13478;BME280;12598;62.382;17.344;2023-03-21T02:50:14;100778.72;;;22.34;22.63
13478;BME280;12598;62.382;17.344;2023-03-21T02:51:22;100773.03;;;22.29;22.46
13478;BME280;12598;62.382;17.344;2023-03-21T02:52:28;100775.88;;;22.27;22.21
13478;BME280;12598;62.382;17.344;2023-03-21T02:53:48;100779.06;;;22.31;22.06
13478;BME280;12598;62.382;17.344;2023-03-21T02:55:24;100777.53;;;22.36;22.08
13478;BME280;12598;62.382;17.344;2023-03-21T02:56:38;100774.84;;;22.36;22.35
13478;BME280;12598;62.382;17.344;2023-03-21T02:57:42;100774.34;;;22.33;22.46
13478;BME280;12598;62.382;17.344;2023-03-21T02:58:47;100773.38;;;22.26;22.16
13478;BME280;12598;62.382;17.344;2023-03-21T02:59:50;100777.56;;;22.28;22.13
13478;BME280;12598;62.382;17.344;2023-03-21T03:01:06;100774.69;;;22.30;22.13
13478;BME280;12598;62.382;17.344;2023-03-21T03:02:21;100773.84;;;22.29;22.38
13478;BME280;12598;62.382;17.344;2023-03-21T03:03:24;100763.59;;;22.25;22.61
13478;BME280;12598;62.382;17.344;2023-03-21T03:04:36;100770.31;;;22.29;22.18
13478;BME280;12598;62.382;17.344;2023-03-21T03:05:47;100753.34;;;22.20;22.20
13478;BME280;12598;62.382;17.344;2023-03-21T03:07:06;100762.59;;;22.26;22.34
13478;BME280;12598;62.382;17.344;2023-03-21T03:10:21;100771.66;;;22.41;22.61
13478;BME280;12598;62.382;17.344;2023-03-21T03:14:30;100771.66;;;22.33;21.71
13478;BME280;12598;62.382;17.344;2023-03-21T03:15:59;100773.31;;;22.42;22.56
13478;BME280;12598;62.382;17.344;2023-03-21T03:18:37;100774.69;;;22.38;22.01
13478;BME280;12598;62.382;17.344;2023-03-21T03:21:01;100773.31;;;22.34;22.54
13478;BME280;12598;62.382;17.344;2023-03-21T03:22:23;100772.50;;;22.33;22.41
13478;BME280;12598;62.382;17.344;2023-03-21T03:24:02;100773.31;;;22.42;22.29
13478;BME280;12598;62.382;17.344;2023-03-21T03:25:11;100771.16;;;22.37;21.94
13478;BME280;12598;62.382;17.344;2023-03-21T03:26:38;100777.38;;;22.38;22.13
13478;BME280;12598;62.382;17.344;2023-03-21T03:27:42;100776.03;;;22.34;22.40
13478;BME280;12598;62.382;17.344;2023-03-21T03:28:49;100751.50;;;22.21;22.60
13478;BME280;12598;62.382;17.344;2023-03-21T03:29:53;100775.72;;;22.29;22.65
13478;BME280;12598;62.382;17.344;2023-03-21T03:31:00;100767.63;;;22.29;22.61
13478;BME280;12598;62.382;17.344;2023-03-21T03:32:21;100744.13;;;22.15;22.52
13478;BME280;12598;62.382;17.344;2023-03-21T03:33:25;100769.31;;;22.30;22.50
13478;BME280;12598;62.382;17.344;2023-03-21T03:34:31;100769.66;;;22.27;22.36
13478;BME280;12598;62.382;17.344;2023-03-21T03:35:36;100764.28;;;22.27;22.75
13478;BME280;12598;62.382;17.344;2023-03-21T03:36:41;100770.69;;;22.26;22.79
13478;BME280;12598;62.382;17.344;2023-03-21T03:37:53;100769.66;;;22.27;22.08
13478;BME280;12598;62.382;17.344;2023-03-21T03:38:59;100773.03;;;22.29;22.81
13478;BME280;12598;62.382;17.344;2023-03-21T03:40:07;100769.66;;;22.27;22.46
13478;BME280;12598;62.382;17.344;2023-03-21T03:41:26;100766.63;;;22.30;22.27
13478;BME280;12598;62.382;17.344;2023-03-21T03:42:36;100770.13;;;22.30;21.96
13478;BME280;12598;62.382;17.344;2023-03-21T03:43:54;100778.06;;;22.32;22.08
13478;BME280;12598;62.382;17.344;2023-03-21T03:45:00;100780.75;;;22.32;22.69
13478;BME280;12598;62.382;17.344;2023-03-21T03:46:10;100773.03;;;22.29;22.03
13478;BME280;12598;62.382;17.344;2023-03-21T03:48:48;100780.75;;;22.32;22.57
13478;BME280;12598;62.382;17.344;2023-03-21T03:50:01;100776.03;;;22.34;22.12
13478;BME280;12598;62.382;17.344;2023-03-21T03:51:42;100784.09;;;22.42;22.43
13478;BME280;12598;62.382;17.344;2023-03-21T03:53:24;100784.59;;;22.45;21.80
13478;BME280;12598;62.382;17.344;2023-03-21T03:54:35;100783.63;;;22.38;22.30
13478;BME280;12598;62.382;17.344;2023-03-21T03:55:39;100782.94;;;22.36;21.81
13478;BME280;12598;62.382;17.344;2023-03-21T03:56:46;100784.16;;;22.26;22.63
13478;BME280;12598;62.382;17.344;2023-03-21T03:57:48;100788.16;;;22.30;22.60
13478;BME280;12598;62.382;17.344;2023-03-21T03:58:50;100797.25;;;22.29;22.27
13478;BME280;12598;62.382;17.344;2023-03-21T03:59:57;100794.56;;;22.29;22.12
13478;BME280;12598;62.382;17.344;2023-03-21T04:01:16;100793.38;;;22.31;22.03
13478;BME280;12598;62.382;17.344;2023-03-21T04:02:18;100795.38;;;22.29;22.63
13478;BME280;12598;62.382;17.344;2023-03-21T04:03:22;100770.72;;;22.18;22.34
13478;BME280;12598;62.382;17.344;2023-03-21T04:04:25;100787.66;;;22.26;22.58
13478;BME280;12598;62.382;17.344;2023-03-21T04:05:30;100782.47;;;22.25;22.09
13478;BME280;12598;62.382;17.344;2023-03-21T04:06:33;100753.41;;;22.04;22.14
13478;BME280;12598;62.382;17.344;2023-03-21T04:07:35;100778.59;;;22.19;22.26
13478;BME280;12598;62.382;17.344;2023-03-21T04:08:37;100777.91;;;22.25;22.45
13478;BME280;12598;62.382;17.344;2023-03-21T04:09:39;100787.84;;;22.25;22.07
13478;BME280;12598;62.382;17.344;2023-03-21T04:10:48;100785.81;;;22.27;22.55
13478;BME280;12598;62.382;17.344;2023-03-21T04:11:51;100784.97;;;22.26;22.44
13478;BME280;12598;62.382;17.344;2023-03-21T04:12:53;100782.47;;;22.25;22.02
13478;BME280;12598;62.382;17.344;2023-03-21T04:14:06;100785.63;;;22.28;22.00
13478;BME280;12598;62.382;17.344;2023-03-21T04:15:09;100781.25;;;22.27;22.51
13478;BME280;12598;62.382;17.344;2023-03-21T04:16:16;100775.03;;;22.27;22.66
13478;BME280;12598;62.382;17.344;2023-03-21T04:17:20;100771.34;;;22.28;22.78
13478;BME280;12598;62.382;17.344;2023-03-21T04:18:22;100772.50;;;22.25;22.59
13478;BME280;12598;62.382;17.344;2023-03-21T04:19:24;100773.38;;;22.26;22.31
13478;BME280;12598;62.382;17.344;2023-03-21T04:20:27;100776.06;;;22.26;22.69
13478;BME280;12598;62.382;17.344;2023-03-21T04:21:38;100781.09;;;22.29;22.12
13478;BME280;12598;62.382;17.344;2023-03-21T04:22:40;100788.31;;;22.28;21.97
13478;BME280;12598;62.382;17.344;2023-03-21T04:23:42;100782.13;;;22.28;22.12
13478;BME280;12598;62.382;17.344;2023-03-21T04:24:44;100752.22;;;22.07;22.49
13478;BME280;12598;62.382;17.344;2023-03-21T04:25:47;100781.13;;;22.21;22.39
13478;BME280;12598;62.382;17.344;2023-03-21T04:27:03;100780.91;;;22.30;22.16
13478;BME280;12598;62.382;17.344;2023-03-21T04:28:12;100787.97;;;22.31;21.86
13478;BME280;12598;62.382;17.344;2023-03-21T04:29:21;100793.38;;;22.31;22.33
13478;BME280;12598;62.382;17.344;2023-03-21T04:30:41;100796.75;;;22.33;22.48
13478;BME280;12598;62.382;17.344;2023-03-21T04:32:01;100803.63;;;22.36;22.38
13478;BME280;12598;62.382;17.344;2023-03-21T04:33:04;100792.53;;;22.31;22.65
13478;BME280;12598;62.382;17.344;2023-03-21T04:34:08;100807.03;;;22.30;22.28
13478;BME280;12598;62.382;17.344;2023-03-21T04:35:17;100798.94;;;22.30;22.32
13478;BME280;12598;62.382;17.344;2023-03-21T04:36:19;100794.72;;;22.27;22.08
13478;BME280;12598;62.382;17.344;2023-03-21T04:37:42;100804.13;;;22.31;22.10
13478;BME280;12598;62.382;17.344;2023-03-21T04:38:47;100803.31;;;22.31;22.67
13478;BME280;12598;62.382;17.344;2023-03-21T04:39:51;100809.88;;;22.28;21.88
13478;BME280;12598;62.382;17.344;2023-03-21T04:40:52;100801.13;;;22.26;22.44
13478;BME280;12598;62.382;17.344;2023-03-21T04:41:55;100802.16;;;22.25;21.90
13478;BME280;12598;62.382;17.344;2023-03-21T04:42:57;100803.16;;;22.24;22.53
13478;BME280;12598;62.382;17.344;2023-03-21T04:44:02;100795.63;;;22.20;22.27
13478;BME280;12598;62.382;17.344;2023-03-21T04:45:04;100800.47;;;22.24;22.11
13478;BME280;12598;62.382;17.344;2023-03-21T04:46:06;100802.34;;;22.24;21.90
13478;BME280;12598;62.382;17.344;2023-03-21T04:47:08;100807.72;;;22.24;21.91
13478;BME280;12598;62.382;17.344;2023-03-21T04:48:10;100801.47;;;22.23;22.03
13478;BME280;12598;62.382;17.344;2023-03-21T04:49:14;100792.25;;;22.18;22.36
13478;BME280;12598;62.382;17.344;2023-03-21T04:50:17;100792.25;;;22.18;22.45
13478;BME280;12598;62.382;17.344;2023-03-21T04:51:19;100791.75;;;22.14;22.12
13478;BME280;12598;62.382;17.344;2023-03-21T04:52:21;100807.72;;;22.24;22.61
13478;BME280;12598;62.382;17.344;2023-03-21T04:53:26;100802.34;;;22.24;22.05
13478;BME280;12598;62.382;17.344;2023-03-21T04:54:27;100797.97;;;22.23;21.86
13478;BME280;12598;62.382;17.344;2023-03-21T04:55:30;100805.03;;;22.24;22.06
13478;BME280;12598;62.382;17.344;2023-03-21T04:56:33;100805.84;;;22.24;22.12
13478;BME280;12598;62.382;17.344;2023-03-21T04:57:37;100788.56;;;22.19;22.38
13478;BME280;12598;62.382;17.344;2023-03-21T04:58:39;100801.31;;;22.25;21.93
13478;BME280;12598;62.382;17.344;2023-03-21T04:59:41;100784.19;;;22.18;22.50
13478;BME280;12598;62.382;17.344;2023-03-21T05:00:43;100805.03;;;22.24;22.14
13478;BME280;12598;62.382;17.344;2023-03-21T05:01:45;100795.25;;;22.23;22.83
13478;BME280;12598;62.382;17.344;2023-03-21T05:02:48;100794.75;;;22.19;22.46
13478;BME280;12598;62.382;17.344;2023-03-21T05:03:50;100799.78;;;22.22;22.15
13478;BME280;12598;62.382;17.344;2023-03-21T05:04:52;100794.41;;;22.22;22.29
13478;BME280;12598;62.382;17.344;2023-03-21T05:05:54;100795.25;;;22.23;22.63
13478;BME280;12598;62.382;17.344;2023-03-21T05:06:57;100787.34;;;22.21;22.30
13478;BME280;12598;62.382;17.344;2023-03-21T05:07:59;100791.56;;;22.24;22.71
13478;BME280;12598;62.382;17.344;2023-03-21T05:09:02;100788.19;;;22.22;22.44
13478;BME280;12598;62.382;17.344;2023-03-21T05:10:10;100784.50;;;22.23;22.50
13478;BME280;12598;62.382;17.344;2023-03-21T05:11:14;100794.06;;;22.25;22.14
13478;BME280;12598;62.382;17.344;2023-03-21T05:12:16;100777.78;;;22.19;22.33
13478;BME280;12598;62.382;17.344;2023-03-21T05:13:19;100781.59;;;22.24;22.15
13478;BME280;12598;62.382;17.344;2023-03-21T05:14:24;100784.50;;;22.23;22.19
13478;BME280;12598;62.382;17.344;2023-03-21T05:15:26;100785.16;;;22.25;22.02
13478;BME280;12598;62.382;17.344;2023-03-21T05:16:28;100786.53;;;22.21;22.61
13478;BME280;12598;62.382;17.344;2023-03-21T05:17:32;100786.16;;;22.24;22.07
13478;BME280;12598;62.382;17.344;2023-03-21T05:18:34;100782.16;;;22.20;22.46
13478;BME280;12598;62.382;17.344;2023-03-21T05:19:46;100777.75;;;22.27;22.50
13478;BME280;12598;62.382;17.344;2023-03-21T05:20:48;100787.84;;;22.25;22.54
13478;BME280;12598;62.382;17.344;2023-03-21T05:21:55;100786.84;;;22.26;22.47
13478;BME280;12598;62.382;17.344;2023-03-21T05:23:00;100768.84;;;22.18;22.30
13478;BME280;12598;62.382;17.344;2023-03-21T05:24:02;100778.91;;;22.24;22.37
13478;BME280;12598;62.382;17.344;2023-03-21T05:25:07;100779.94;;;22.23;22.90
13478;BME280;12598;62.382;17.344;2023-03-21T05:26:23;100781.09;;;22.29;22.29
13478;BME280;12598;62.382;17.344;2023-03-21T05:27:34;100775.88;;;22.27;22.31
13478;BME280;12598;62.382;17.344;2023-03-21T05:28:41;100788.50;;;22.27;22.71
13478;BME280;12598;62.382;17.344;2023-03-21T05:29:45;100779.56;;;22.26;22.66
13478;BME280;12598;62.382;17.344;2023-03-21T05:30:47;100786.84;;;22.26;22.74
13478;BME280;12598;62.382;17.344;2023-03-21T05:31:49;100782.47;;;22.25;22.07
13478;BME280;12598;62.382;17.344;2023-03-21T05:32:53;100778.91;;;22.24;22.73
13478;BME280;12598;62.382;17.344;2023-03-21T05:33:55;100784.31;;;22.24;22.74
13478;BME280;12598;62.382;17.344;2023-03-21T05:34:57;100785.50;;;22.22;22.48
13478;BME280;12598;62.382;17.344;2023-03-21T05:35:59;100786.16;;;22.24;22.62
13478;BME280;12598;62.382;17.344;2023-03-21T05:37:04;100789.88;;;22.23;22.40
13478;BME280;12598;62.382;17.344;2023-03-21T05:38:22;100776.88;;;22.26;21.88
13478;BME280;12598;62.382;17.344;2023-03-21T05:39:25;100774.72;;;22.22;22.02
13478;BME280;12598;62.382;17.344;2023-03-21T05:40:37;100769.34;;;22.22;22.08
13478;BME280;12598;62.382;17.344;2023-03-21T05:41:40;100784.50;;;22.23;21.83
13478;BME280;12598;62.382;17.344;2023-03-21T05:42:42;100770.72;;;22.18;22.08
13478;BME280;12598;62.382;17.344;2023-03-21T05:43:55;100783.47;;;22.24;22.02
13478;BME280;12598;62.382;17.344;2023-03-21T05:44:57;100783.63;;;22.22;22.50
13478;BME280;12598;62.382;17.344;2023-03-21T05:46:07;100782.81;;;22.22;21.97
13478;BME280;12598;62.382;17.344;2023-03-21T05:47:09;100777.59;;;22.20;22.32
13478;BME280;12598;62.382;17.344;2023-03-21T05:48:18;100781.13;;;22.21;22.24
13478;BME280;12598;62.382;17.344;2023-03-21T05:49:42;100779.09;;;22.23;21.92
13478;BME280;12598;62.382;17.344;2023-03-21T05:50:44;100783.84;;;22.21;22.30
13478;BME280;12598;62.382;17.344;2023-03-21T05:51:51;100791.91;;;22.21;22.53
13478;BME280;12598;62.382;17.344;2023-03-21T05:52:53;100781.47;;;22.18;22.51
13478;BME280;12598;62.382;17.344;2023-03-21T05:53:55;100788.91;;;22.16;21.95
13478;BME280;12598;62.382;17.344;2023-03-21T05:54:57;100786.38;;;22.14;22.03
13478;BME280;12598;62.382;17.344;2023-03-21T05:56:02;100791.75;;;22.14;22.00
13478;BME280;12598;62.382;17.344;2023-03-21T05:57:14;100793.28;;;22.17;22.53
13478;BME280;12598;62.382;17.344;2023-03-21T05:58:27;100791.75;;;22.14;22.40
13478;BME280;12598;62.382;17.344;2023-03-21T05:59:29;100786.19;;;22.08;22.31
13478;BME280;12598;62.382;17.344;2023-03-21T06:00:31;100795.47;;;22.13;22.17
13478;BME280;12598;62.382;17.344;2023-03-21T06:01:46;100798.34;;;22.12;22.09
13478;BME280;12598;62.382;17.344;2023-03-21T06:02:50;100815.16;;;22.14;21.74
13478;BME280;12598;62.382;17.344;2023-03-21T06:04:08;100811.28;;;22.16;21.65
13478;BME280;12598;62.382;17.344;2023-03-21T06:05:10;100807.09;;;22.14;22.31
13478;BME280;12598;62.382;17.344;2023-03-21T06:06:12;100801.84;;;22.12;21.89
13478;BME280;12598;62.382;17.344;2023-03-21T06:07:22;100807.09;;;22.14;22.09
13478;BME280;12598;62.382;17.344;2023-03-21T06:08:24;100802.72;;;22.13;22.11
13478;BME280;12598;62.382;17.344;2023-03-21T06:09:26;100810.78;;;22.13;21.54
13478;BME280;12598;62.382;17.344;2023-03-21T06:10:32;100805.06;;;22.16;22.12
13478;BME280;12598;62.382;17.344;2023-03-21T06:11:37;100804.03;;;22.17;21.96
13478;BME280;12598;62.382;17.344;2023-03-21T06:13:04;100805.69;;;22.26;21.73
13478;BME280;12598;62.382;17.344;2023-03-21T06:14:07;100800.31;;;22.26;21.17
13478;BME280;12598;62.382;17.344;2023-03-21T06:15:10;100800.31;;;22.26;21.81
13478;BME280;12598;62.382;17.344;2023-03-21T06:16:32;100800.94;;;22.36;21.43
13478;BME280;12598;62.382;17.344;2023-03-21T06:17:34;100803.63;;;22.36;20.75
13478;BME280;12598;62.382;17.344;2023-03-21T06:18:42;100796.56;;;22.35;21.17
13478;BME280;12598;62.382;17.344;2023-03-21T06:19:52;100806.97;;;22.46;20.64
13478;BME280;12598;62.382;17.344;2023-03-21T06:21:02;100797.41;;;22.43;21.24
13478;BME280;12598;62.382;17.344;2023-03-21T06:22:05;100778.06;;;22.32;21.01
13478;BME280;12598;62.382;17.344;2023-03-21T06:23:10;100809.63;;;22.53;21.08
13478;BME280;12598;62.382;17.344;2023-03-21T06:24:12;100814.50;;;22.58;21.06